createdAt,value
2017-06-26T00:01:13.471Z,8.27
2017-06-26T00:03:40.914Z,8.37
2017-06-26T00:06:08.386Z,7.77
2017-06-26T00:08:36.378Z,8.20
2017-06-26T00:11:05.544Z,7.67
2017-06-26T00:13:34.355Z,7.90
2017-06-26T00:16:01.815Z,8.10
2017-06-26T00:18:29.988Z,8.13
2017-06-26T00:20:58.719Z,8.20
2017-06-26T00:23:27.098Z,7.90
2017-06-26T00:25:55.334Z,7.23
2017-06-26T00:28:23.109Z,7.67
2017-06-26T00:30:52.104Z,7.93
2017-06-26T00:33:20.787Z,8.10
2017-06-26T00:35:49.192Z,8.13
2017-06-26T00:38:16.994Z,8.20
2017-06-26T00:40:45.922Z,8.10
2017-06-26T00:43:15.222Z,7.97
2017-06-26T00:45:43.649Z,7.67
2017-06-26T00:48:12.084Z,7.50
2017-06-26T00:50:39.916Z,7.47
2017-06-26T00:53:07.991Z,7.40
2017-06-26T00:55:36.203Z,7.53
2017-06-26T00:58:04.843Z,7.83
2017-06-26T01:00:32.758Z,7.63
2017-06-26T01:03:01.153Z,7.67
2017-06-26T01:05:28.893Z,7.60
2017-06-26T01:07:56.971Z,7.20
2017-06-26T01:10:24.799Z,7.20
2017-06-26T01:12:52.815Z,6.90
2017-06-26T01:15:20.895Z,7.10
2017-06-26T01:17:49.266Z,8.20
2017-06-26T01:20:16.822Z,6.90
2017-06-26T01:22:44.388Z,7.53
2017-06-26T01:25:12.252Z,8.30
2017-06-26T01:27:41.151Z,7.57
2017-06-26T01:30:08.911Z,7.20
2017-06-26T01:32:36.774Z,7.43
2017-06-26T01:35:04.309Z,7.33
2017-06-26T01:37:32.306Z,7.67
2017-06-26T01:40:00.379Z,6.87
2017-06-26T01:42:27.982Z,7.57
2017-06-26T01:44:56.070Z,7.53
2017-06-26T01:47:24.482Z,7.53
2017-06-26T01:49:52.544Z,6.90
2017-06-26T01:52:20.332Z,7.90
2017-06-26T01:54:49.199Z,7.70
2017-06-26T01:57:17.607Z,8.07
2017-06-26T01:59:45.206Z,7.77
2017-06-26T02:02:13.234Z,6.73
2017-06-26T02:04:41.206Z,7.00
2017-06-26T02:07:09.380Z,7.23
2017-06-26T02:09:37.664Z,7.20
2017-06-26T02:12:06.118Z,7.67
2017-06-26T02:14:34.213Z,7.00
2017-06-26T02:17:01.959Z,7.47
2017-06-26T02:19:30.051Z,7.60
2017-06-26T02:21:58.724Z,7.27
2017-06-26T02:24:26.510Z,7.87
2017-06-26T02:26:54.624Z,7.37
2017-06-26T02:29:23.167Z,7.40
2017-06-26T02:31:51.085Z,7.20
2017-06-26T02:34:19.006Z,7.37
2017-06-26T02:36:46.470Z,7.00
2017-06-26T02:39:13.995Z,7.30
2017-06-26T02:41:42.607Z,7.00
2017-06-26T02:44:10.776Z,7.70
2017-06-26T02:46:39.156Z,6.97
2017-06-26T02:49:06.981Z,7.33
2017-06-26T02:51:34.450Z,7.00
2017-06-26T02:54:03.695Z,7.33
2017-06-26T02:56:32.276Z,7.30
2017-06-26T02:58:59.823Z,7.60
2017-06-26T03:01:28.416Z,6.40
2017-06-26T03:03:56.519Z,6.63
2017-06-26T03:06:23.953Z,6.90
2017-06-26T03:08:51.716Z,7.20
2017-06-26T03:11:20.194Z,7.20
2017-06-26T03:13:48.299Z,6.83
2017-06-26T03:16:15.928Z,6.50
2017-06-26T03:18:43.438Z,6.67
2017-06-26T03:21:10.955Z,7.10
2017-06-26T03:23:40.590Z,6.80
2017-06-26T03:26:09.238Z,8.03
2017-06-26T03:28:36.698Z,7.47
2017-06-26T03:31:04.663Z,6.50
2017-06-26T03:33:32.435Z,6.67
2017-06-26T03:36:01.131Z,6.80
2017-06-26T03:38:29.308Z,6.83
2017-06-26T03:40:57.574Z,7.00
2017-06-26T03:43:25.346Z,6.77
2017-06-26T03:45:54.170Z,7.83
2017-06-26T03:48:22.787Z,6.50
2017-06-26T03:50:50.816Z,6.43
2017-06-26T03:53:19.267Z,6.80
2017-06-26T03:55:47.831Z,6.63
2017-06-26T03:58:16.045Z,7.57
2017-06-26T04:00:44.842Z,7.13
2017-06-26T04:03:12.494Z,6.53
2017-06-26T04:05:40.520Z,7.13
2017-06-26T04:08:08.728Z,6.80
2017-06-26T04:10:36.275Z,7.07
2017-06-26T04:13:04.026Z,6.70
2017-06-26T04:15:32.302Z,7.20
2017-06-26T04:18:00.402Z,6.90
2017-06-26T04:20:28.264Z,6.73
2017-06-26T04:22:56.762Z,6.53
2017-06-26T04:25:24.731Z,7.07
2017-06-26T04:27:52.194Z,7.37
2017-06-26T04:30:20.243Z,6.13
2017-06-26T04:32:48.322Z,6.93
2017-06-26T04:35:16.298Z,7.00
2017-06-26T04:37:45.293Z,7.47
2017-06-26T04:40:13.675Z,7.50
2017-06-26T04:42:41.202Z,7.00
2017-06-26T04:45:09.507Z,6.63
2017-06-26T04:47:37.567Z,6.70
2017-06-26T04:50:06.098Z,6.80
2017-06-26T04:52:33.624Z,6.83
2017-06-26T04:55:01.585Z,7.10
2017-06-26T04:57:29.664Z,6.80
2017-06-26T04:59:57.395Z,6.73
2017-06-26T05:02:25.702Z,7.80
2017-06-26T05:04:53.782Z,6.90
2017-06-26T05:07:21.610Z,7.00
2017-06-26T05:09:49.095Z,7.17
2017-06-26T05:12:17.085Z,6.70
2017-06-26T05:14:45.461Z,7.13
2017-06-26T05:17:13.474Z,7.07
2017-06-26T05:19:41.624Z,6.27
2017-06-26T05:22:09.676Z,6.63
2017-06-26T05:24:37.469Z,6.23
2017-06-26T05:27:05.407Z,7.23
2017-06-26T05:29:33.063Z,7.80
2017-06-26T05:32:01.020Z,6.73
2017-06-26T05:34:28.995Z,7.40
2017-06-26T05:36:56.884Z,7.30
2017-06-26T05:39:24.728Z,7.20
2017-06-26T05:41:52.715Z,7.10
2017-06-26T05:44:20.582Z,6.70
2017-06-26T05:46:48.662Z,7.07
2017-06-26T05:49:17.556Z,6.60
2017-06-26T05:51:45.398Z,7.83
2017-06-26T05:54:13.535Z,7.30
2017-06-26T05:56:41.463Z,7.00
2017-06-26T05:59:09.538Z,7.50
2017-06-26T06:01:37.789Z,6.97
2017-06-26T06:04:05.807Z,7.20
2017-06-26T06:06:33.737Z,6.83
2017-06-26T06:09:01.221Z,7.53
2017-06-26T06:11:29.080Z,6.40
2017-06-26T06:13:57.154Z,7.83
2017-06-26T06:16:24.814Z,6.97
2017-06-26T06:18:53.197Z,7.10
2017-06-26T06:21:22.248Z,7.57
2017-06-26T06:23:49.701Z,6.63
2017-06-26T06:26:17.160Z,7.40
2017-06-26T06:28:44.897Z,6.73
2017-06-26T06:31:12.939Z,6.80
2017-06-26T06:33:40.715Z,6.83
2017-06-26T06:36:08.209Z,6.73
2017-06-26T06:38:36.228Z,6.20
2017-06-26T06:41:04.007Z,7.40
2017-06-26T06:43:31.475Z,6.07
2017-06-26T06:45:59.404Z,6.70
2017-06-26T06:48:27.094Z,7.37
2017-06-26T06:50:54.859Z,7.27
2017-06-26T06:53:22.628Z,7.10
2017-06-26T06:55:50.483Z,6.80
2017-06-26T06:58:18.767Z,7.30
2017-06-26T07:00:46.546Z,7.73
2017-06-26T07:03:14.499Z,7.03
2017-06-26T07:05:41.983Z,6.47
2017-06-26T07:08:09.509Z,7.00
2017-06-26T07:10:37.471Z,6.50
2017-06-26T07:13:05.017Z,7.70
2017-06-26T07:15:33.023Z,6.73
2017-06-26T07:18:00.608Z,6.33
2017-06-26T07:20:28.245Z,6.60
2017-06-26T07:22:56.315Z,6.93
2017-06-26T07:25:23.991Z,7.13
2017-06-26T07:27:51.572Z,6.90
2017-06-26T07:30:19.842Z,7.20
2017-06-26T07:32:47.268Z,6.73
2017-06-26T07:35:15.463Z,7.17
2017-06-26T07:37:43.527Z,6.40
2017-06-26T07:40:10.999Z,6.20
2017-06-26T07:42:39.274Z,6.43
2017-06-26T07:45:06.836Z,6.67
2017-06-26T07:47:34.342Z,5.90
2017-06-26T07:50:01.827Z,5.67
2017-06-26T07:52:29.603Z,5.50
2017-06-26T07:54:57.086Z,5.63
2017-06-26T07:57:24.720Z,5.63
2017-06-26T07:59:52.211Z,6.23
2017-06-26T08:02:19.847Z,5.67
2017-06-26T08:04:47.615Z,6.00
2017-06-26T08:07:15.094Z,6.00
2017-06-26T08:09:43.114Z,5.63
2017-06-26T08:12:11.217Z,6.20
2017-06-26T08:14:39.148Z,6.03
2017-06-26T08:17:07.364Z,5.27
2017-06-26T08:19:34.807Z,6.00
2017-06-26T08:22:02.683Z,5.90
2017-06-26T08:24:30.475Z,5.13
2017-06-26T08:26:59.320Z,6.20
2017-06-26T08:29:26.798Z,5.77
2017-06-26T08:31:54.875Z,5.47
2017-06-26T08:34:22.775Z,6.27
2017-06-26T08:36:51.431Z,6.10
2017-06-26T08:39:19.726Z,5.50
2017-06-26T08:41:47.174Z,5.40
2017-06-26T08:44:15.442Z,5.47
2017-06-26T08:46:42.919Z,4.40
2017-06-26T08:49:11.036Z,5.33
2017-06-26T08:51:38.507Z,4.93
2017-06-26T08:54:06.303Z,5.60
2017-06-26T08:56:34.376Z,5.70
2017-06-26T08:59:02.252Z,4.90
2017-06-26T09:01:30.032Z,5.33
2017-06-26T09:03:57.674Z,4.63
2017-06-26T09:06:25.205Z,5.47
2017-06-26T09:08:52.711Z,4.87
2017-06-26T09:11:20.359Z,5.17
2017-06-26T09:13:48.211Z,5.07
2017-06-26T09:16:15.780Z,5.17
2017-06-26T09:18:43.863Z,5.67
2017-06-26T09:21:11.400Z,5.10
2017-06-26T09:23:38.970Z,5.33
2017-06-26T09:26:06.542Z,5.43
2017-06-26T09:28:34.743Z,4.57
2017-06-26T09:31:02.576Z,5.47
2017-06-26T09:33:30.103Z,5.00
2017-06-26T09:35:57.599Z,5.07
2017-06-26T09:38:25.422Z,4.63
2017-06-26T09:40:53.088Z,4.83
2017-06-26T09:43:20.686Z,4.23
2017-06-26T09:45:48.179Z,5.80
2017-06-26T09:48:15.679Z,4.53
2017-06-26T09:50:43.465Z,4.93
2017-06-26T09:53:11.160Z,4.60
2017-06-26T09:55:39.206Z,4.80
2017-06-26T09:58:06.960Z,5.20
2017-06-26T10:00:35.187Z,5.10
2017-06-26T10:03:02.647Z,5.20
2017-06-26T10:05:30.372Z,4.60
2017-06-26T10:07:58.446Z,4.70
2017-06-26T10:10:26.187Z,5.03
2017-06-26T10:12:53.620Z,5.00
2017-06-26T10:15:21.242Z,4.43
2017-06-26T10:17:49.094Z,4.90
2017-06-26T10:20:17.864Z,4.93
2017-06-26T10:22:45.667Z,4.93
2017-06-26T10:25:13.722Z,4.23
2017-06-26T10:27:41.455Z,4.50
2017-06-26T10:30:09.452Z,4.10
2017-06-26T10:32:37.219Z,4.70
2017-06-26T10:35:05.217Z,4.50
2017-06-26T10:37:33.060Z,3.97
2017-06-26T10:40:01.025Z,4.73
2017-06-26T10:42:28.791Z,4.67
2017-06-26T10:44:56.327Z,4.73
2017-06-26T10:47:23.919Z,4.57
2017-06-26T10:49:51.685Z,4.10
2017-06-26T10:52:20.126Z,4.70
2017-06-26T10:54:47.887Z,4.50
2017-06-26T10:57:15.631Z,4.30
2017-06-26T10:59:43.355Z,4.17
2017-06-26T11:02:11.008Z,4.00
2017-06-26T11:04:38.575Z,4.30
2017-06-26T11:07:06.860Z,3.40
2017-06-26T11:09:34.400Z,4.27
2017-06-26T11:12:02.079Z,3.60
2017-06-26T11:14:30.151Z,3.70
2017-06-26T11:16:58.226Z,3.90
2017-06-26T11:19:25.994Z,4.20
2017-06-26T11:21:53.477Z,3.87
2017-06-26T11:24:21.503Z,3.97
2017-06-26T11:26:49.499Z,3.83
2017-06-26T11:29:17.100Z,3.70
2017-06-26T11:31:45.420Z,3.20
2017-06-26T11:34:13.368Z,3.43
2017-06-26T11:36:41.572Z,3.63
2017-06-26T11:39:09.019Z,4.20
2017-06-26T11:41:36.635Z,3.40
2017-06-26T11:44:05.143Z,3.47
2017-06-26T11:46:32.949Z,3.50
2017-06-26T11:49:00.807Z,3.07
2017-06-26T11:51:28.783Z,3.50
2017-06-26T11:53:56.863Z,3.00
2017-06-26T11:56:24.644Z,3.70
2017-06-26T11:58:53.250Z,3.67
2017-06-26T12:01:21.578Z,3.40
2017-06-26T12:03:49.032Z,3.50
2017-06-26T12:06:16.673Z,3.93
2017-06-26T12:08:44.243Z,2.90
2017-06-26T12:11:12.285Z,3.27
2017-06-26T12:13:40.041Z,3.57
2017-06-26T12:16:07.835Z,3.50
2017-06-26T12:18:35.551Z,3.10
2017-06-26T12:21:04.201Z,3.40
2017-06-26T12:23:31.847Z,3.67
2017-06-26T12:26:00.271Z,2.80
2017-06-26T12:28:28.890Z,2.90
2017-06-26T12:30:57.220Z,3.37
2017-06-26T12:33:24.678Z,3.07
2017-06-26T12:35:52.163Z,3.20
2017-06-26T12:38:19.627Z,3.20
2017-06-26T12:40:47.136Z,2.90
2017-06-26T12:43:15.026Z,3.00
2017-06-26T12:45:42.584Z,2.73
2017-06-26T12:48:10.332Z,2.90
2017-06-26T12:50:38.332Z,3.00
2017-06-26T12:53:06.403Z,2.70
2017-06-26T12:55:34.323Z,2.50
2017-06-26T12:58:02.689Z,2.33
2017-06-26T13:00:30.969Z,3.00
2017-06-26T13:02:58.688Z,2.70
2017-06-26T13:05:27.473Z,3.17
2017-06-26T13:07:55.111Z,2.50
2017-06-26T13:10:23.211Z,2.80
2017-06-26T13:12:50.974Z,2.70
2017-06-26T13:15:18.836Z,2.67
2017-06-26T13:17:46.688Z,2.63
2017-06-26T13:20:14.179Z,2.43
2017-06-26T13:22:41.611Z,2.93
2017-06-26T13:25:09.392Z,2.62
2017-06-26T13:27:37.168Z,3.03
2017-06-26T13:30:05.728Z,2.57
2017-06-26T13:32:33.942Z,2.60
2017-06-26T13:35:01.855Z,2.60
2017-06-26T13:37:29.951Z,2.90
2017-06-26T13:39:57.827Z,2.67
2017-06-26T13:42:25.949Z,2.30
2017-06-26T13:44:53.666Z,2.60
2017-06-26T13:47:21.304Z,2.50
2017-06-26T13:49:49.033Z,2.97
2017-06-26T13:52:16.655Z,2.70
2017-06-26T13:54:44.612Z,2.47
2017-06-26T13:57:13.211Z,2.93
2017-06-26T13:59:40.710Z,2.37
2017-06-26T14:02:08.520Z,2.80
2017-06-26T14:04:36.171Z,3.07
2017-06-26T14:07:04.580Z,2.30
2017-06-26T14:09:32.071Z,2.60
2017-06-26T14:11:59.831Z,2.73
2017-06-26T14:14:27.926Z,2.57
2017-06-26T14:16:55.430Z,2.60
2017-06-26T14:19:24.015Z,3.17
2017-06-26T14:21:51.722Z,2.50
2017-06-26T14:24:19.323Z,2.30
2017-06-26T14:26:46.827Z,2.50
2017-06-26T14:29:15.186Z,2.50
2017-06-26T14:31:43.218Z,2.50
2017-06-26T14:34:11.636Z,2.70
2017-06-26T14:36:39.499Z,2.47
2017-06-26T14:39:07.283Z,2.37
2017-06-26T14:41:36.260Z,2.90
2017-06-26T14:44:04.238Z,2.60
2017-06-26T14:46:31.802Z,2.47
2017-06-26T14:48:59.998Z,2.90
2017-06-26T14:51:27.500Z,2.70
2017-06-26T14:53:56.087Z,2.57
2017-06-26T14:56:23.877Z,2.40
2017-06-26T14:58:51.742Z,2.73
2017-06-26T15:01:19.594Z,2.30
2017-06-26T15:03:47.382Z,2.40
2017-06-26T15:06:15.150Z,2.40
2017-06-26T15:08:43.215Z,3.07
2017-06-26T15:11:11.167Z,2.40
2017-06-26T15:13:39.367Z,2.40
2017-06-26T15:16:07.208Z,2.70
2017-06-26T15:18:35.096Z,2.50
2017-06-26T15:21:03.354Z,2.80
2017-06-26T15:23:31.347Z,2.70
2017-06-26T15:25:58.794Z,2.77
2017-06-26T15:28:26.690Z,2.60
2017-06-26T15:30:54.966Z,2.60
2017-06-26T15:33:22.786Z,2.70
2017-06-26T15:35:50.886Z,2.60
2017-06-26T15:38:18.760Z,2.53
2017-06-26T15:40:46.837Z,2.53
2017-06-26T15:43:14.479Z,2.40
2017-06-26T15:45:42.338Z,2.60
2017-06-26T15:48:19.233Z,2.63
2017-06-26T15:50:47.252Z,2.30
2017-06-26T15:53:14.687Z,3.10
2017-06-26T15:55:43.659Z,2.27
2017-06-26T15:58:11.433Z,2.63
2017-06-26T16:00:39.908Z,2.57
2017-06-26T16:03:07.980Z,2.57
2017-06-26T16:05:35.435Z,2.80
2017-06-26T16:08:03.640Z,2.40
2017-06-26T16:10:31.791Z,2.37
2017-06-26T16:12:59.290Z,2.80
2017-06-26T16:15:27.016Z,2.50
2017-06-26T16:17:54.779Z,2.30
2017-06-26T16:20:22.577Z,2.33
2017-06-26T16:22:50.411Z,2.50
2017-06-26T16:25:18.275Z,2.60
2017-06-26T16:27:46.162Z,2.63
2017-06-26T16:30:14.135Z,2.63
2017-06-26T16:32:41.603Z,2.50
2017-06-26T16:35:10.427Z,2.70
2017-06-26T16:37:37.953Z,2.70
2017-06-26T16:40:05.906Z,2.33
2017-06-26T16:42:34.025Z,2.30
2017-06-26T16:45:01.500Z,2.77
2017-06-26T16:47:29.207Z,2.33
2017-06-26T16:49:56.931Z,2.30
2017-06-26T16:52:24.541Z,2.30
2017-06-26T16:54:52.490Z,2.50
2017-06-26T16:57:20.148Z,2.63
2017-06-26T16:59:48.018Z,2.43
2017-06-26T17:02:16.649Z,2.50
2017-06-26T17:04:44.361Z,2.50
2017-06-26T17:07:12.447Z,2.13
2017-06-26T17:09:40.044Z,2.10
2017-06-26T17:12:07.522Z,2.00
2017-06-26T17:14:35.227Z,2.83
2017-06-26T17:17:02.731Z,2.50
2017-06-26T17:19:30.552Z,2.47
2017-06-26T17:21:58.323Z,2.10
2017-06-26T17:24:25.879Z,2.40
2017-06-26T17:26:53.952Z,1.70
2017-06-26T17:29:21.511Z,2.23
2017-06-26T17:31:50.095Z,2.70
2017-06-26T17:34:17.892Z,2.67
2017-06-26T17:36:45.422Z,2.50
2017-06-26T17:39:12.874Z,2.37
2017-06-26T17:41:40.483Z,2.50
2017-06-26T17:44:07.956Z,2.40
2017-06-26T17:46:35.391Z,2.00
2017-06-26T17:49:02.833Z,2.03
2017-06-26T17:51:30.678Z,2.23
2017-06-26T17:53:58.647Z,2.30
2017-06-26T17:56:26.165Z,3.07
2017-06-26T17:58:53.851Z,2.20
2017-06-26T18:01:21.464Z,2.10
2017-06-26T18:03:49.466Z,2.20
2017-06-26T18:06:16.943Z,2.30
2017-06-26T18:08:44.939Z,2.50
2017-06-26T18:11:13.227Z,2.20
2017-06-26T18:13:41.163Z,2.33
2017-06-26T18:16:08.847Z,2.70
2017-06-26T18:18:36.835Z,2.87
2017-06-26T18:21:04.406Z,2.87
2017-06-26T18:23:32.244Z,2.20
2017-06-26T18:26:00.167Z,2.23
2017-06-26T18:28:27.760Z,2.37
2017-06-26T18:30:55.257Z,1.97
2017-06-26T18:33:23.506Z,2.20
2017-06-26T18:35:50.967Z,2.23
2017-06-26T18:38:18.749Z,2.27
2017-06-26T18:40:46.910Z,2.30
2017-06-26T18:43:15.181Z,2.20
2017-06-26T18:45:44.134Z,2.70
2017-06-26T18:48:11.780Z,2.33
2017-06-26T18:50:39.797Z,2.07
2017-06-26T18:53:08.630Z,1.77
2017-06-26T18:55:36.880Z,2.10
2017-06-26T18:58:04.939Z,1.90
2017-06-26T19:00:32.459Z,2.30
2017-06-26T19:03:01.110Z,2.03
2017-06-26T19:05:29.152Z,2.00
2017-06-26T19:07:56.936Z,1.97
2017-06-26T19:10:25.012Z,2.17
2017-06-26T19:12:52.640Z,1.90
2017-06-26T19:15:20.111Z,2.23
2017-06-26T19:17:48.098Z,2.33
2017-06-26T19:20:15.690Z,2.00
2017-06-26T19:22:43.184Z,2.30
2017-06-26T19:25:10.983Z,2.47
2017-06-26T19:27:38.760Z,2.30
2017-06-26T19:30:06.789Z,2.20
2017-06-26T19:32:34.496Z,1.93
2017-06-26T19:35:02.917Z,2.10
2017-06-26T19:37:30.640Z,2.20
2017-06-26T19:39:58.403Z,2.13
2017-06-26T19:42:27.826Z,1.90
2017-06-26T19:44:56.485Z,2.30
2017-06-26T19:47:24.558Z,1.93
2017-06-26T19:49:52.834Z,2.00
2017-06-26T19:52:21.626Z,2.27
2017-06-26T19:54:49.367Z,1.90
2017-06-26T19:57:17.289Z,2.20
2017-06-26T19:59:44.949Z,2.20
2017-06-26T20:02:12.994Z,2.20
2017-06-26T20:04:40.642Z,2.20
2017-06-26T20:07:08.532Z,2.50
2017-06-26T20:09:36.292Z,2.40
2017-06-26T20:12:03.835Z,2.37
2017-06-26T20:14:31.523Z,2.50
2017-06-26T20:16:59.690Z,2.77
2017-06-26T20:19:27.662Z,3.00
2017-06-26T20:21:55.232Z,2.70
2017-06-26T20:24:23.906Z,2.87
2017-06-26T20:26:52.194Z,3.23
2017-06-26T20:29:19.640Z,3.23
2017-06-26T20:31:48.331Z,3.53
2017-06-26T20:34:16.670Z,2.97
2017-06-26T20:36:44.215Z,3.47
2017-06-26T20:39:11.720Z,3.67
2017-06-26T20:41:39.211Z,3.53
2017-06-26T20:44:07.259Z,3.80
2017-06-26T20:46:35.126Z,3.97
2017-06-26T20:49:03.482Z,3.47
2017-06-26T20:51:31.706Z,4.30
2017-06-26T20:53:59.696Z,4.00
2017-06-26T20:56:28.272Z,4.10
2017-06-26T20:58:55.719Z,4.20
2017-06-26T21:01:24.183Z,3.50
2017-06-26T21:03:51.743Z,4.13
2017-06-26T21:06:19.918Z,3.80
2017-06-26T21:08:47.598Z,3.70
2017-06-26T21:11:15.347Z,4.20
2017-06-26T21:13:43.240Z,4.27
2017-06-26T21:16:10.899Z,4.27
2017-06-26T21:18:38.843Z,4.30
2017-06-26T21:21:06.605Z,3.80
2017-06-26T21:23:34.052Z,4.00
2017-06-26T21:26:02.963Z,4.10
2017-06-26T21:28:31.236Z,3.77
2017-06-26T21:30:58.915Z,3.67
2017-06-26T21:33:26.771Z,4.30
2017-06-26T21:35:54.843Z,3.63
2017-06-26T21:38:22.598Z,4.33
2017-06-26T21:40:50.544Z,3.97
2017-06-26T21:43:20.077Z,4.50
2017-06-26T21:45:48.150Z,5.13
2017-06-26T21:48:16.123Z,4.23
2017-06-26T21:50:43.951Z,3.80
2017-06-26T21:53:12.878Z,4.03
2017-06-26T21:55:40.604Z,4.33
2017-06-26T21:58:08.998Z,4.53
2017-06-26T22:00:36.793Z,4.10
2017-06-26T22:03:04.663Z,4.77
2017-06-26T22:05:32.525Z,4.00
2017-06-26T22:08:00.103Z,4.00
2017-06-26T22:10:27.778Z,4.00
2017-06-26T22:12:55.950Z,3.80
2017-06-26T22:15:24.144Z,3.97
2017-06-26T22:17:52.279Z,4.70
2017-06-26T22:20:20.637Z,5.57
2017-06-26T22:22:48.102Z,4.30
2017-06-26T22:25:16.490Z,4.20
2017-06-26T22:27:44.162Z,4.37
2017-06-26T22:30:12.796Z,4.40
2017-06-26T22:32:40.514Z,4.43
2017-06-26T22:35:08.782Z,4.90
2017-06-26T22:37:36.952Z,4.50
2017-06-26T22:40:04.624Z,4.30
2017-06-26T22:42:32.226Z,4.33
2017-06-26T22:44:59.736Z,4.27
2017-06-26T22:47:27.403Z,4.50
2017-06-26T22:49:54.975Z,4.30
2017-06-26T22:52:22.642Z,5.07
2017-06-26T22:54:50.532Z,4.50
2017-06-26T22:57:18.671Z,4.47
2017-06-26T22:59:46.438Z,4.43
2017-06-26T23:02:14.411Z,4.83
2017-06-26T23:04:41.863Z,4.30
2017-06-26T23:07:09.626Z,4.37
2017-06-26T23:09:37.243Z,4.20
2017-06-26T23:12:04.999Z,4.17
2017-06-26T23:14:32.955Z,4.30
2017-06-26T23:17:01.750Z,4.87
2017-06-26T23:19:29.483Z,4.20
2017-06-26T23:21:56.915Z,4.20
2017-06-26T23:24:25.522Z,4.50
2017-06-26T23:26:53.190Z,4.87
2017-06-26T23:29:21.261Z,4.70
2017-06-26T23:31:48.823Z,4.23
2017-06-26T23:34:16.590Z,4.90
2017-06-26T23:36:44.079Z,4.73
2017-06-26T23:39:11.910Z,5.13
2017-06-26T23:41:41.313Z,4.63
2017-06-26T23:44:08.980Z,4.77
2017-06-26T23:46:36.975Z,4.60
2017-06-26T23:49:05.051Z,4.87
2017-06-26T23:51:32.792Z,4.87
2017-06-26T23:54:01.240Z,4.40
2017-06-26T23:56:28.930Z,4.33
2017-06-26T23:58:56.841Z,4.70
